sensor_id;sensor_type;location;lat;lon;timestamp;P1;durP1;ratioP1;P2;durP2;ratioP2
5999;SDS011;3028;49.468;7.694;2022-08-03T00:00:33;3.25;;;2.33;;
5999;SDS011;3028;49.468;7.694;2022-08-03T00:02:35;2.35;;;2.15;;
5999;SDS011;3028;49.468;7.694;2022-08-03T00:04:36;2.83;;;2.15;;
5999;SDS011;3028;49.468;7.694;2022-08-03T00:06:38;3.40;;;1.95;;
5999;SDS011;3028;49.468;7.694;2022-08-03T00:08:40;2.28;;;2.13;;
5999;SDS011;3028;49.468;7.694;2022-08-03T00:10:42;1.95;;;1.85;;
5999;SDS011;3028;49.468;7.694;2022-08-03T00:12:44;2.70;;;2.10;;
5999;SDS011;3028;49.468;7.694;2022-08-03T00:14:46;2.50;;;2.28;;
5999;SDS011;3028;49.468;7.694;2022-08-03T00:16:48;4.55;;;2.30;;
5999;SDS011;3028;49.468;7.694;2022-08-03T00:18:49;1.85;;;1.75;;
5999;SDS011;3028;49.468;7.694;2022-08-03T00:20:51;1.92;;;1.83;;
5999;SDS011;3028;49.468;7.694;2022-08-03T00:22:53;3.40;;;2.50;;
5999;SDS011;3028;49.468;7.694;2022-08-03T00:24:55;2.58;;;2.17;;
5999;SDS011;3028;49.468;7.694;2022-08-03T00:26:57;2.13;;;1.98;;
5999;SDS011;3028;49.468;7.694;2022-08-03T00:28:59;3.00;;;2.53;;
5999;SDS011;3028;49.468;7.694;2022-08-03T00:31:00;2.35;;;2.25;;
5999;SDS011;3028;49.468;7.694;2022-08-03T00:33:03;3.25;;;2.55;;
5999;SDS011;3028;49.468;7.694;2022-08-03T00:35:08;2.17;;;1.98;;
5999;SDS011;3028;49.468;7.694;2022-08-03T00:37:26;2.38;;;1.70;;
5999;SDS011;3028;49.468;7.694;2022-08-03T00:39:42;2.00;;;1.80;;
5999;SDS011;3028;49.468;7.694;2022-08-03T00:41:46;3.30;;;2.03;;
5999;SDS011;3028;49.468;7.694;2022-08-03T00:43:49;3.25;;;2.13;;
5999;SDS011;3028;49.468;7.694;2022-08-03T00:45:50;1.80;;;1.70;;
5999;SDS011;3028;49.468;7.694;2022-08-03T00:47:52;2.88;;;1.98;;
5999;SDS011;3028;49.468;7.694;2022-08-03T00:49:55;7.32;;;2.00;;
5999;SDS011;3028;49.468;7.694;2022-08-03T00:51:56;3.80;;;1.90;;
5999;SDS011;3028;49.468;7.694;2022-08-03T00:54:08;2.55;;;2.28;;
5999;SDS011;3028;49.468;7.694;2022-08-03T00:56:14;2.47;;;2.15;;
5999;SDS011;3028;49.468;7.694;2022-08-03T00:58:16;5.43;;;2.17;;
5999;SDS011;3028;49.468;7.694;2022-08-03T01:00:22;1.92;;;1.83;;
5999;SDS011;3028;49.468;7.694;2022-08-03T01:02:26;3.53;;;2.17;;
5999;SDS011;3028;49.468;7.694;2022-08-03T01:04:28;1.90;;;1.70;;
5999;SDS011;3028;49.468;7.694;2022-08-03T01:06:33;2.17;;;2.05;;
5999;SDS011;3028;49.468;7.694;2022-08-03T01:11:28;2.45;;;2.25;;
5999;SDS011;3028;49.468;7.694;2022-08-03T01:16:18;2.28;;;1.63;;
5999;SDS011;3028;49.468;7.694;2022-08-03T01:20:57;4.85;;;2.22;;
5999;SDS011;3028;49.468;7.694;2022-08-03T01:25:57;2.00;;;1.90;;
5999;SDS011;3028;49.468;7.694;2022-08-03T01:30:36;2.35;;;2.25;;
5999;SDS011;3028;49.468;7.694;2022-08-03T01:36:01;2.50;;;2.30;;
5999;SDS011;3028;49.468;7.694;2022-08-03T01:37:49;2.05;;;1.85;;
5999;SDS011;3028;49.468;7.694;2022-08-03T01:39:53;2.95;;;2.45;;
5999;SDS011;3028;49.468;7.694;2022-08-03T01:41:57;1.70;;;1.60;;
5999;SDS011;3028;49.468;7.694;2022-08-03T01:44:02;2.05;;;1.95;;
5999;SDS011;3028;49.468;7.694;2022-08-03T01:46:24;2.00;;;1.90;;
5999;SDS011;3028;49.468;7.694;2022-08-03T01:48:26;2.35;;;2.15;;
5999;SDS011;3028;49.468;7.694;2022-08-03T01:50:29;2.50;;;2.30;;
5999;SDS011;3028;49.468;7.694;2022-08-03T01:52:31;2.72;;;2.13;;
5999;SDS011;3028;49.468;7.694;2022-08-03T01:54:35;2.22;;;2.03;;
5999;SDS011;3028;49.468;7.694;2022-08-03T01:56:38;2.25;;;2.15;;
5999;SDS011;3028;49.468;7.694;2022-08-03T01:58:40;1.92;;;1.80;;
5999;SDS011;3028;49.468;7.694;2022-08-03T02:00:44;2.55;;;2.35;;
5999;SDS011;3028;49.468;7.694;2022-08-03T02:02:48;2.22;;;2.05;;
5999;SDS011;3028;49.468;7.694;2022-08-03T02:04:51;2.03;;;1.92;;
5999;SDS011;3028;49.468;7.694;2022-08-03T02:06:54;2.90;;;2.58;;
5999;SDS011;3028;49.468;7.694;2022-08-03T02:09:03;2.28;;;2.17;;
5999;SDS011;3028;49.468;7.694;2022-08-03T02:11:06;2.15;;;2.03;;
5999;SDS011;3028;49.468;7.694;2022-08-03T02:13:08;2.55;;;2.35;;
5999;SDS011;3028;49.468;7.694;2022-08-03T02:15:11;2.53;;;2.33;;
5999;SDS011;3028;49.468;7.694;2022-08-03T02:17:14;2.80;;;2.60;;
5999;SDS011;3028;49.468;7.694;2022-08-03T02:19:16;2.28;;;2.08;;
5999;SDS011;3028;49.468;7.694;2022-08-03T02:21:18;5.47;;;2.38;;
5999;SDS011;3028;49.468;7.694;2022-08-03T02:23:40;2.90;;;2.60;;
5999;SDS011;3028;49.468;7.694;2022-08-03T02:25:46;2.63;;;2.42;;
5999;SDS011;3028;49.468;7.694;2022-08-03T02:27:56;2.70;;;2.50;;
5999;SDS011;3028;49.468;7.694;2022-08-03T02:30:04;2.88;;;2.67;;
5999;SDS011;3028;49.468;7.694;2022-08-03T02:32:18;2.85;;;2.65;;
5999;SDS011;3028;49.468;7.694;2022-08-03T02:34:21;2.28;;;2.08;;
5999;SDS011;3028;49.468;7.694;2022-08-03T02:36:31;3.00;;;2.80;;
5999;SDS011;3028;49.468;7.694;2022-08-03T02:38:38;2.38;;;2.17;;
5999;SDS011;3028;49.468;7.694;2022-08-03T02:40:41;3.42;;;2.30;;
5999;SDS011;3028;49.468;7.694;2022-08-03T02:42:45;2.95;;;2.75;;
5999;SDS011;3028;49.468;7.694;2022-08-03T02:44:47;2.40;;;2.13;;
5999;SDS011;3028;49.468;7.694;2022-08-03T02:46:52;2.40;;;2.30;;
5999;SDS011;3028;49.468;7.694;2022-08-03T02:48:56;2.55;;;2.35;;
5999;SDS011;3028;49.468;7.694;2022-08-03T02:51:20;2.55;;;2.35;;
5999;SDS011;3028;49.468;7.694;2022-08-03T02:53:23;2.40;;;2.28;;
5999;SDS011;3028;49.468;7.694;2022-08-03T02:55:27;4.38;;;2.28;;
5999;SDS011;3028;49.468;7.694;2022-08-03T02:57:30;3.20;;;2.83;;
5999;SDS011;3028;49.468;7.694;2022-08-03T02:59:35;2.92;;;2.40;;
5999;SDS011;3028;49.468;7.694;2022-08-03T03:01:37;6.13;;;3.42;;
5999;SDS011;3028;49.468;7.694;2022-08-03T03:03:39;3.35;;;2.95;;
5999;SDS011;3028;49.468;7.694;2022-08-03T03:05:45;3.35;;;3.03;;
5999;SDS011;3028;49.468;7.694;2022-08-03T03:07:55;3.22;;;2.80;;
5999;SDS011;3028;49.468;7.694;2022-08-03T03:09:57;2.53;;;2.33;;
5999;SDS011;3028;49.468;7.694;2022-08-03T03:11:59;3.05;;;2.85;;
5999;SDS011;3028;49.468;7.694;2022-08-03T03:14:03;2.92;;;2.67;;
5999;SDS011;3028;49.468;7.694;2022-08-03T03:16:09;3.13;;;2.58;;
5999;SDS011;3028;49.468;7.694;2022-08-03T03:18:13;2.72;;;2.38;;
5999;SDS011;3028;49.468;7.694;2022-08-03T03:20:22;2.40;;;2.30;;
5999;SDS011;3028;49.468;7.694;2022-08-03T03:22:30;3.97;;;2.88;;
5999;SDS011;3028;49.468;7.694;2022-08-03T03:24:34;3.75;;;2.72;;
5999;SDS011;3028;49.468;7.694;2022-08-03T03:26:36;2.40;;;2.30;;
5999;SDS011;3028;49.468;7.694;2022-08-03T03:28:42;3.03;;;2.83;;
5999;SDS011;3028;49.468;7.694;2022-08-03T03:30:44;2.78;;;2.13;;
5999;SDS011;3028;49.468;7.694;2022-08-03T03:32:53;2.67;;;2.47;;
5999;SDS011;3028;49.468;7.694;2022-08-03T03:34:55;2.72;;;2.17;;
5999;SDS011;3028;49.468;7.694;2022-08-03T03:36:59;3.40;;;3.10;;
5999;SDS011;3028;49.468;7.694;2022-08-03T03:39:02;2.60;;;2.40;;
5999;SDS011;3028;49.468;7.694;2022-08-03T03:41:16;2.88;;;2.63;;
5999;SDS011;3028;49.468;7.694;2022-08-03T03:43:22;2.10;;;2.00;;
5999;SDS011;3028;49.468;7.694;2022-08-03T03:45:23;4.10;;;2.47;;
5999;SDS011;3028;49.468;7.694;2022-08-03T03:47:27;2.85;;;2.65;;
5999;SDS011;3028;49.468;7.694;2022-08-03T03:49:33;2.63;;;2.42;;
5999;SDS011;3028;49.468;7.694;2022-08-03T03:51:35;2.40;;;2.20;;
5999;SDS011;3028;49.468;7.694;2022-08-03T03:53:36;2.90;;;2.70;;
5999;SDS011;3028;49.468;7.694;2022-08-03T03:55:38;3.30;;;2.97;;
5999;SDS011;3028;49.468;7.694;2022-08-03T03:58:00;3.15;;;2.65;;
5999;SDS011;3028;49.468;7.694;2022-08-03T04:00:04;3.10;;;2.90;;
5999;SDS011;3028;49.468;7.694;2022-08-03T04:02:07;2.55;;;2.35;;
5999;SDS011;3028;49.468;7.694;2022-08-03T04:04:09;3.50;;;2.78;;
5999;SDS011;3028;49.468;7.694;2022-08-03T04:06:29;3.65;;;2.60;;
5999;SDS011;3028;49.468;7.694;2022-08-03T04:08:50;2.92;;;2.63;;
5999;SDS011;3028;49.468;7.694;2022-08-03T04:11:21;4.35;;;2.85;;
5999;SDS011;3028;49.468;7.694;2022-08-03T04:15:52;3.20;;;2.90;;
5999;SDS011;3028;49.468;7.694;2022-08-03T04:17:56;5.20;;;2.78;;
5999;SDS011;3028;49.468;7.694;2022-08-03T04:19:58;2.80;;;2.60;;
5999;SDS011;3028;49.468;7.694;2022-08-03T04:22:03;2.63;;;2.47;;
5999;SDS011;3028;49.468;7.694;2022-08-03T04:24:08;5.55;;;3.15;;
5999;SDS011;3028;49.468;7.694;2022-08-03T04:26:11;3.17;;;2.90;;
5999;SDS011;3028;49.468;7.694;2022-08-03T04:28:14;3.45;;;2.80;;
5999;SDS011;3028;49.468;7.694;2022-08-03T04:30:32;3.33;;;3.13;;
5999;SDS011;3028;49.468;7.694;2022-08-03T04:32:37;2.47;;;2.38;;
5999;SDS011;3028;49.468;7.694;2022-08-03T04:34:45;2.83;;;2.67;;
5999;SDS011;3028;49.468;7.694;2022-08-03T04:36:48;3.22;;;2.88;;
5999;SDS011;3028;49.468;7.694;2022-08-03T04:39:01;2.45;;;2.25;;
5999;SDS011;3028;49.468;7.694;2022-08-03T04:41:05;2.85;;;2.63;;
5999;SDS011;3028;49.468;7.694;2022-08-03T04:43:08;2.70;;;2.50;;
5999;SDS011;3028;49.468;7.694;2022-08-03T04:45:11;2.92;;;2.72;;
5999;SDS011;3028;49.468;7.694;2022-08-03T04:47:13;2.63;;;2.42;;
5999;SDS011;3028;49.468;7.694;2022-08-03T04:49:16;2.83;;;2.63;;
5999;SDS011;3028;49.468;7.694;2022-08-03T04:51:20;3.20;;;2.55;;
5999;SDS011;3028;49.468;7.694;2022-08-03T04:53:22;3.22;;;2.92;;
5999;SDS011;3028;49.468;7.694;2022-08-03T04:55:24;3.15;;;2.53;;
5999;SDS011;3028;49.468;7.694;2022-08-03T04:57:32;4.35;;;2.60;;
5999;SDS011;3028;49.468;7.694;2022-08-03T04:59:34;5.97;;;2.60;;
5999;SDS011;3028;49.468;7.694;2022-08-03T05:01:41;2.60;;;2.40;;
5999;SDS011;3028;49.468;7.694;2022-08-03T05:03:42;4.72;;;2.63;;
5999;SDS011;3028;49.468;7.694;2022-08-03T05:05:44;3.33;;;2.53;;
5999;SDS011;3028;49.468;7.694;2022-08-03T05:07:50;2.83;;;2.60;;
5999;SDS011;3028;49.468;7.694;2022-08-03T05:09:53;6.90;;;3.08;;
5999;SDS011;3028;49.468;7.694;2022-08-03T05:12:03;2.95;;;2.75;;
5999;SDS011;3028;49.468;7.694;2022-08-03T05:14:06;3.25;;;2.63;;
5999;SDS011;3028;49.468;7.694;2022-08-03T05:16:07;3.08;;;2.83;;
5999;SDS011;3028;49.468;7.694;2022-08-03T05:18:09;3.15;;;2.95;;
5999;SDS011;3028;49.468;7.694;2022-08-03T05:20:14;3.22;;;2.97;;
5999;SDS011;3028;49.468;7.694;2022-08-03T05:22:19;3.17;;;2.97;;
5999;SDS011;3028;49.468;7.694;2022-08-03T05:24:22;23.73;;;3.85;;
5999;SDS011;3028;49.468;7.694;2022-08-03T05:26:23;3.28;;;3.08;;
5999;SDS011;3028;49.468;7.694;2022-08-03T05:28:26;3.35;;;3.05;;
5999;SDS011;3028;49.468;7.694;2022-08-03T05:30:28;3.53;;;3.17;;
5999;SDS011;3028;49.468;7.694;2022-08-03T05:32:34;4.10;;;2.80;;
5999;SDS011;3028;49.468;7.694;2022-08-03T05:34:36;6.53;;;2.95;;
5999;SDS011;3028;49.468;7.694;2022-08-03T05:36:38;3.08;;;2.80;;
5999;SDS011;3028;49.468;7.694;2022-08-03T05:38:40;3.65;;;3.05;;
5999;SDS011;3028;49.468;7.694;2022-08-03T05:40:41;3.50;;;3.22;;
5999;SDS011;3028;49.468;7.694;2022-08-03T05:42:58;7.70;;;2.70;;
5999;SDS011;3028;49.468;7.694;2022-08-03T05:45:04;3.05;;;2.83;;
5999;SDS011;3028;49.468;7.694;2022-08-03T05:47:15;3.22;;;3.00;;
5999;SDS011;3028;49.468;7.694;2022-08-03T05:49:17;9.05;;;2.95;;
5999;SDS011;3028;49.468;7.694;2022-08-03T05:51:19;4.47;;;2.40;;
5999;SDS011;3028;49.468;7.694;2022-08-03T05:53:21;3.40;;;2.80;;
5999;SDS011;3028;49.468;7.694;2022-08-03T05:55:23;3.10;;;2.85;;
5999;SDS011;3028;49.468;7.694;2022-08-03T05:57:25;4.65;;;3.60;;
5999;SDS011;3028;49.468;7.694;2022-08-03T05:59:27;5.50;;;2.78;;
5999;SDS011;3028;49.468;7.694;2022-08-03T06:01:38;2.67;;;2.47;;
5999;SDS011;3028;49.468;7.694;2022-08-03T06:03:40;3.78;;;3.13;;
5999;SDS011;3028;49.468;7.694;2022-08-03T06:05:42;2.55;;;2.45;;
5999;SDS011;3028;49.468;7.694;2022-08-03T06:08:00;2.95;;;2.72;;
5999;SDS011;3028;49.468;7.694;2022-08-03T06:10:03;2.38;;;2.22;;
5999;SDS011;3028;49.468;7.694;2022-08-03T06:12:25;2.55;;;2.35;;
5999;SDS011;3028;49.468;7.694;2022-08-03T06:14:27;2.60;;;2.40;;
5999;SDS011;3028;49.468;7.694;2022-08-03T06:16:29;3.55;;;2.65;;
5999;SDS011;3028;49.468;7.694;2022-08-03T06:18:31;4.05;;;2.53;;
5999;SDS011;3028;49.468;7.694;2022-08-03T06:20:41;2.50;;;2.30;;
5999;SDS011;3028;49.468;7.694;2022-08-03T06:22:44;3.17;;;2.20;;
5999;SDS011;3028;49.468;7.694;2022-08-03T06:24:51;2.78;;;2.28;;
5999;SDS011;3028;49.468;7.694;2022-08-03T06:26:55;2.92;;;2.28;;
5999;SDS011;3028;49.468;7.694;2022-08-03T06:28:57;2.20;;;2.00;;
5999;SDS011;3028;49.468;7.694;2022-08-03T06:31:02;5.38;;;2.35;;
5999;SDS011;3028;49.468;7.694;2022-08-03T06:33:23;2.38;;;2.17;;
5999;SDS011;3028;49.468;7.694;2022-08-03T06:35:46;2.22;;;2.03;;
5999;SDS011;3028;49.468;7.694;2022-08-03T06:37:49;3.13;;;2.33;;
5999;SDS011;3028;49.468;7.694;2022-08-03T06:39:52;2.47;;;2.28;;
5999;SDS011;3028;49.468;7.694;2022-08-03T06:41:54;5.57;;;1.98;;
5999;SDS011;3028;49.468;7.694;2022-08-03T06:43:59;3.28;;;2.63;;
5999;SDS011;3028;49.468;7.694;2022-08-03T06:46:04;4.38;;;2.20;;
5999;SDS011;3028;49.468;7.694;2022-08-03T06:48:08;2.33;;;2.22;;
5999;SDS011;3028;49.468;7.694;2022-08-03T06:50:11;2.90;;;2.45;;
5999;SDS011;3028;49.468;7.694;2022-08-03T06:52:19;9.65;;;4.05;;
5999;SDS011;3028;49.468;7.694;2022-08-03T06:54:38;2.60;;;2.40;;
5999;SDS011;3028;49.468;7.694;2022-08-03T06:56:40;3.53;;;2.85;;
5999;SDS011;3028;49.468;7.694;2022-08-03T06:58:42;2.45;;;2.08;;
5999;SDS011;3028;49.468;7.694;2022-08-03T07:00:50;2.15;;;2.00;;
5999;SDS011;3028;49.468;7.694;2022-08-03T07:02:54;5.05;;;2.10;;
5999;SDS011;3028;49.468;7.694;2022-08-03T07:04:58;1.92;;;1.80;;
5999;SDS011;3028;49.468;7.694;2022-08-03T07:07:00;2.17;;;1.92;;
5999;SDS011;3028;49.468;7.694;2022-08-03T07:09:02;2.17;;;1.90;;
5999;SDS011;3028;49.468;7.694;2022-08-03T07:11:04;2.08;;;1.88;;
5999;SDS011;3028;49.468;7.694;2022-08-03T07:13:06;2.22;;;1.95;;
5999;SDS011;3028;49.468;7.694;2022-08-03T07:15:08;4.82;;;2.00;;
5999;SDS011;3028;49.468;7.694;2022-08-03T07:17:32;2.95;;;1.70;;
5999;SDS011;3028;49.468;7.694;2022-08-03T07:19:35;1.92;;;1.83;;
5999;SDS011;3028;49.468;7.694;2022-08-03T07:21:37;2.63;;;2.03;;
5999;SDS011;3028;49.468;7.694;2022-08-03T07:23:39;3.70;;;2.13;;
5999;SDS011;3028;49.468;7.694;2022-08-03T07:25:40;2.05;;;1.50;;
5999;SDS011;3028;49.468;7.694;2022-08-03T07:27:43;1.77;;;1.67;;
5999;SDS011;3028;49.468;7.694;2022-08-03T07:29:51;2.40;;;2.20;;
5999;SDS011;3028;49.468;7.694;2022-08-03T07:31:56;2.20;;;1.65;;
5999;SDS011;3028;49.468;7.694;2022-08-03T07:34:00;2.08;;;1.90;;
5999;SDS011;3028;49.468;7.694;2022-08-03T07:36:01;1.60;;;1.50;;
5999;SDS011;3028;49.468;7.694;2022-08-03T07:38:04;2.08;;;1.88;;
5999;SDS011;3028;49.468;7.694;2022-08-03T07:40:06;2.25;;;1.83;;
5999;SDS011;3028;49.468;7.694;2022-08-03T07:42:08;2.72;;;1.73;;
5999;SDS011;3028;49.468;7.694;2022-08-03T07:44:11;1.67;;;1.33;;
5999;SDS011;3028;49.468;7.694;2022-08-03T07:46:13;2.17;;;2.03;;
5999;SDS011;3028;49.468;7.694;2022-08-03T07:48:15;1.80;;;1.70;;
5999;SDS011;3028;49.468;7.694;2022-08-03T07:50:17;2.50;;;1.75;;
5999;SDS011;3028;49.468;7.694;2022-08-03T07:52:19;5.85;;;1.60;;
5999;SDS011;3028;49.468;7.694;2022-08-03T07:54:39;2.30;;;1.98;;
5999;SDS011;3028;49.468;7.694;2022-08-03T07:56:41;5.30;;;2.17;;
5999;SDS011;3028;49.468;7.694;2022-08-03T07:58:43;1.90;;;1.70;;
5999;SDS011;3028;49.468;7.694;2022-08-03T08:00:45;2.20;;;1.73;;
5999;SDS011;3028;49.468;7.694;2022-08-03T08:02:47;3.85;;;1.77;;
5999;SDS011;3028;49.468;7.694;2022-08-03T08:04:50;3.63;;;1.48;;
5999;SDS011;3028;49.468;7.694;2022-08-03T08:06:54;2.30;;;1.40;;
5999;SDS011;3028;49.468;7.694;2022-08-03T08:08:57;2.63;;;1.70;;
5999;SDS011;3028;49.468;7.694;2022-08-03T08:11:02;3.05;;;1.65;;
5999;SDS011;3028;49.468;7.694;2022-08-03T08:13:05;10.07;;;1.70;;
5999;SDS011;3028;49.468;7.694;2022-08-03T08:15:07;2.88;;;2.05;;
5999;SDS011;3028;49.468;7.694;2022-08-03T08:17:10;3.78;;;1.73;;
5999;SDS011;3028;49.468;7.694;2022-08-03T08:19:12;4.35;;;1.80;;
5999;SDS011;3028;49.468;7.694;2022-08-03T08:21:15;2.13;;;1.58;;
5999;SDS011;3028;49.468;7.694;2022-08-03T08:23:16;2.25;;;1.30;;
5999;SDS011;3028;49.468;7.694;2022-08-03T08:25:44;1.33;;;1.23;;
5999;SDS011;3028;49.468;7.694;2022-08-03T08:27:47;2.33;;;1.50;;
5999;SDS011;3028;49.468;7.694;2022-08-03T08:30:10;6.03;;;1.77;;
5999;SDS011;3028;49.468;7.694;2022-08-03T08:32:18;20.20;;;1.40;;
5999;SDS011;3028;49.468;7.694;2022-08-03T08:34:20;2.60;;;1.17;;
5999;SDS011;3028;49.468;7.694;2022-08-03T08:36:22;3.65;;;1.00;;
5999;SDS011;3028;49.468;7.694;2022-08-03T08:38:25;1.33;;;1.00;;
5999;SDS011;3028;49.468;7.694;2022-08-03T08:40:27;2.15;;;1.00;;
5999;SDS011;3028;49.468;7.694;2022-08-03T08:42:32;1.95;;;0.90;;
5999;SDS011;3028;49.468;7.694;2022-08-03T08:44:38;1.15;;;0.95;;
5999;SDS011;3028;49.468;7.694;2022-08-03T08:46:40;1.60;;;1.02;;
5999;SDS011;3028;49.468;7.694;2022-08-03T08:48:42;1.45;;;0.90;;
5999;SDS011;3028;49.468;7.694;2022-08-03T08:50:44;1.80;;;1.05;;
5999;SDS011;3028;49.468;7.694;2022-08-03T08:52:48;3.55;;;0.88;;
5999;SDS011;3028;49.468;7.694;2022-08-03T08:55:00;1.05;;;0.82;;
5999;SDS011;3028;49.468;7.694;2022-08-03T08:57:04;1.13;;;0.90;;
5999;SDS011;3028;49.468;7.694;2022-08-03T08:59:27;2.38;;;1.00;;
5999;SDS011;3028;49.468;7.694;2022-08-03T09:01:48;1.60;;;1.17;;
5999;SDS011;3028;49.468;7.694;2022-08-03T09:03:50;3.28;;;2.47;;
5999;SDS011;3028;49.468;7.694;2022-08-03T09:05:54;1.52;;;1.20;;
5999;SDS011;3028;49.468;7.694;2022-08-03T09:07:57;0.98;;;0.98;;
5999;SDS011;3028;49.468;7.694;2022-08-03T09:09:59;1.35;;;1.23;;
5999;SDS011;3028;49.468;7.694;2022-08-03T09:12:15;1.42;;;1.33;;
5999;SDS011;3028;49.468;7.694;2022-08-03T09:14:36;1.38;;;1.00;;
5999;SDS011;3028;49.468;7.694;2022-08-03T09:16:59;1.08;;;1.08;;
5999;SDS011;3028;49.468;7.694;2022-08-03T09:19:12;1.20;;;1.05;;
5999;SDS011;3028;49.468;7.694;2022-08-03T09:21:19;1.10;;;1.00;;
5999;SDS011;3028;49.468;7.694;2022-08-03T09:23:45;1.45;;;1.35;;
5999;SDS011;3028;49.468;7.694;2022-08-03T09:26:03;1.10;;;1.00;;
5999;SDS011;3028;49.468;7.694;2022-08-03T09:28:12;1.38;;;1.10;;
5999;SDS011;3028;49.468;7.694;2022-08-03T09:30:40;2.17;;;1.85;;
5999;SDS011;3028;49.468;7.694;2022-08-03T09:32:48;1.08;;;1.00;;
5999;SDS011;3028;49.468;7.694;2022-08-03T09:34:51;0.90;;;0.90;;
5999;SDS011;3028;49.468;7.694;2022-08-03T09:36:58;1.52;;;0.95;;
5999;SDS011;3028;49.468;7.694;2022-08-03T09:39:02;1.50;;;0.93;;
5999;SDS011;3028;49.468;7.694;2022-08-03T09:41:16;1.95;;;1.83;;
5999;SDS011;3028;49.468;7.694;2022-08-03T09:43:19;1.33;;;0.90;;
5999;SDS011;3028;49.468;7.694;2022-08-03T09:45:25;1.10;;;1.05;;
5999;SDS011;3028;49.468;7.694;2022-08-03T09:47:28;0.90;;;0.70;;
5999;SDS011;3028;49.468;7.694;2022-08-03T09:49:31;0.77;;;0.77;;
5999;SDS011;3028;49.468;7.694;2022-08-03T09:51:33;0.75;;;0.75;;
5999;SDS011;3028;49.468;7.694;2022-08-03T09:53:55;1.65;;;1.15;;
5999;SDS011;3028;49.468;7.694;2022-08-03T09:56:01;1.00;;;1.00;;
5999;SDS011;3028;49.468;7.694;2022-08-03T09:58:24;1.88;;;0.80;;
5999;SDS011;3028;49.468;7.694;2022-08-03T10:00:26;2.10;;;1.10;;
5999;SDS011;3028;49.468;7.694;2022-08-03T10:02:28;2.47;;;1.10;;
5999;SDS011;3028;49.468;7.694;2022-08-03T10:04:30;1.20;;;0.77;;
5999;SDS011;3028;49.468;7.694;2022-08-03T10:06:32;3.70;;;1.10;;
5999;SDS011;3028;49.468;7.694;2022-08-03T10:08:34;1.25;;;0.90;;
5999;SDS011;3028;49.468;7.694;2022-08-03T10:10:42;1.42;;;1.13;;
5999;SDS011;3028;49.468;7.694;2022-08-03T10:12:44;1.50;;;0.90;;
5999;SDS011;3028;49.468;7.694;2022-08-03T10:14:49;14.30;;;1.05;;
5999;SDS011;3028;49.468;7.694;2022-08-03T10:16:52;1.85;;;0.95;;
5999;SDS011;3028;49.468;7.694;2022-08-03T10:18:54;2.00;;;1.02;;
5999;SDS011;3028;49.468;7.694;2022-08-03T10:20:58;1.27;;;0.98;;
5999;SDS011;3028;49.468;7.694;2022-08-03T10:23:06;2.67;;;1.15;;
5999;SDS011;3028;49.468;7.694;2022-08-03T10:25:10;1.25;;;1.10;;
5999;SDS011;3028;49.468;7.694;2022-08-03T10:27:13;0.85;;;0.85;;
5999;SDS011;3028;49.468;7.694;2022-08-03T10:29:23;1.48;;;0.90;;
5999;SDS011;3028;49.468;7.694;2022-08-03T10:31:27;2.33;;;1.10;;
5999;SDS011;3028;49.468;7.694;2022-08-03T10:33:35;1.20;;;1.05;;
5999;SDS011;3028;49.468;7.694;2022-08-03T10:35:55;1.38;;;1.20;;
5999;SDS011;3028;49.468;7.694;2022-08-03T10:38:02;4.43;;;1.88;;
5999;SDS011;3028;49.468;7.694;2022-08-03T10:40:14;1.88;;;1.23;;
5999;SDS011;3028;49.468;7.694;2022-08-03T10:42:36;1.27;;;1.13;;
5999;SDS011;3028;49.468;7.694;2022-08-03T10:44:42;4.22;;;1.13;;
5999;SDS011;3028;49.468;7.694;2022-08-03T10:46:44;2.08;;;1.08;;
5999;SDS011;3028;49.468;7.694;2022-08-03T10:48:48;2.58;;;0.90;;
5999;SDS011;3028;49.468;7.694;2022-08-03T10:50:52;1.30;;;1.08;;
5999;SDS011;3028;49.468;7.694;2022-08-03T10:53:05;1.20;;;1.10;;
5999;SDS011;3028;49.468;7.694;2022-08-03T10:55:27;2.17;;;1.00;;
5999;SDS011;3028;49.468;7.694;2022-08-03T10:57:52;2.03;;;1.00;;
5999;SDS011;3028;49.468;7.694;2022-08-03T10:59:59;1.00;;;1.00;;
5999;SDS011;3028;49.468;7.694;2022-08-03T11:02:03;2.13;;;0.80;;
5999;SDS011;3028;49.468;7.694;2022-08-03T11:04:15;2.05;;;0.90;;
5999;SDS011;3028;49.468;7.694;2022-08-03T11:08:28;3.40;;;0.90;;
5999;SDS011;3028;49.468;7.694;2022-08-03T11:10:31;1.60;;;1.15;;
5999;SDS011;3028;49.468;7.694;2022-08-03T11:12:33;3.97;;;1.73;;
5999;SDS011;3028;49.468;7.694;2022-08-03T11:14:45;1.08;;;0.98;;
5999;SDS011;3028;49.468;7.694;2022-08-03T11:16:49;7.85;;;1.20;;
5999;SDS011;3028;49.468;7.694;2022-08-03T11:19:00;5.15;;;1.23;;
5999;SDS011;3028;49.468;7.694;2022-08-03T11:21:04;6.82;;;1.25;;
5999;SDS011;3028;49.468;7.694;2022-08-03T11:23:06;6.40;;;0.82;;
5999;SDS011;3028;49.468;7.694;2022-08-03T11:25:08;1.95;;;0.93;;
5999;SDS011;3028;49.468;7.694;2022-08-03T11:27:30;1.70;;;0.90;;
5999;SDS011;3028;49.468;7.694;2022-08-03T11:29:34;2.63;;;2.40;;
5999;SDS011;3028;49.468;7.694;2022-08-03T11:34:03;2.10;;;1.35;;
5999;SDS011;3028;49.468;7.694;2022-08-03T11:36:09;5.25;;;4.88;;
5999;SDS011;3028;49.468;7.694;2022-08-03T11:38:10;2.17;;;1.98;;
5999;SDS011;3028;49.468;7.694;2022-08-03T11:40:31;3.38;;;1.10;;
5999;SDS011;3028;49.468;7.694;2022-08-03T11:42:40;2.97;;;1.52;;
5999;SDS011;3028;49.468;7.694;2022-08-03T11:44:44;1.00;;;0.90;;
5999;SDS011;3028;49.468;7.694;2022-08-03T11:46:48;0.90;;;0.90;;
5999;SDS011;3028;49.468;7.694;2022-08-03T11:48:49;1.17;;;1.13;;
5999;SDS011;3028;49.468;7.694;2022-08-03T11:50:51;0.80;;;0.80;;
5999;SDS011;3028;49.468;7.694;2022-08-03T11:52:53;2.05;;;1.15;;
5999;SDS011;3028;49.468;7.694;2022-08-03T11:54:55;2.28;;;1.08;;
5999;SDS011;3028;49.468;7.694;2022-08-03T11:57:00;0.90;;;0.90;;
5999;SDS011;3028;49.468;7.694;2022-08-03T11:59:02;1.08;;;1.00;;
5999;SDS011;3028;49.468;7.694;2022-08-03T12:01:22;2.53;;;1.05;;
5999;SDS011;3028;49.468;7.694;2022-08-03T12:03:24;2.10;;;0.88;;
5999;SDS011;3028;49.468;7.694;2022-08-03T12:05:34;1.75;;;1.08;;
5999;SDS011;3028;49.468;7.694;2022-08-03T12:07:44;1.58;;;1.10;;
5999;SDS011;3028;49.468;7.694;2022-08-03T12:10:37;0.93;;;0.93;;
5999;SDS011;3028;49.468;7.694;2022-08-03T12:12:31;0.77;;;0.77;;
5999;SDS011;3028;49.468;7.694;2022-08-03T12:14:35;0.90;;;0.80;;
5999;SDS011;3028;49.468;7.694;2022-08-03T12:16:55;1.40;;;0.90;;
5999;SDS011;3028;49.468;7.694;2022-08-03T12:19:01;1.00;;;0.90;;
5999;SDS011;3028;49.468;7.694;2022-08-03T12:21:05;2.70;;;0.85;;
5999;SDS011;3028;49.468;7.694;2022-08-03T12:23:14;1.20;;;1.10;;
5999;SDS011;3028;49.468;7.694;2022-08-03T12:25:20;1.15;;;0.98;;
5999;SDS011;3028;49.468;7.694;2022-08-03T12:27:40;1.58;;;1.45;;
5999;SDS011;3028;49.468;7.694;2022-08-03T12:29:45;2.00;;;1.30;;
5999;SDS011;3028;49.468;7.694;2022-08-03T12:31:59;25.02;;;1.20;;
5999;SDS011;3028;49.468;7.694;2022-08-03T12:34:07;1.55;;;0.98;;
5999;SDS011;3028;49.468;7.694;2022-08-03T12:36:09;2.70;;;0.82;;
5999;SDS011;3028;49.468;7.694;2022-08-03T12:38:11;1.63;;;1.00;;
5999;SDS011;3028;49.468;7.694;2022-08-03T12:40:13;5.53;;;1.10;;
5999;SDS011;3028;49.468;7.694;2022-08-03T12:42:56;1.50;;;1.00;;
5999;SDS011;3028;49.468;7.694;2022-08-03T12:44:50;3.90;;;0.98;;
5999;SDS011;3028;49.468;7.694;2022-08-03T12:46:56;1.00;;;0.98;;
5999;SDS011;3028;49.468;7.694;2022-08-03T12:51:11;2.25;;;1.20;;
5999;SDS011;3028;49.468;7.694;2022-08-03T12:53:13;1.85;;;1.20;;
5999;SDS011;3028;49.468;7.694;2022-08-03T12:55:31;2.63;;;1.10;;
5999;SDS011;3028;49.468;7.694;2022-08-03T12:57:56;2.40;;;1.00;;
5999;SDS011;3028;49.468;7.694;2022-08-03T12:59:58;1.27;;;1.00;;
5999;SDS011;3028;49.468;7.694;2022-08-03T13:02:29;1.20;;;1.00;;
5999;SDS011;3028;49.468;7.694;2022-08-03T13:04:32;4.50;;;0.98;;
5999;SDS011;3028;49.468;7.694;2022-08-03T13:06:35;1.25;;;1.00;;
5999;SDS011;3028;49.468;7.694;2022-08-03T13:08:37;1.23;;;1.13;;
5999;SDS011;3028;49.468;7.694;2022-08-03T13:10:39;1.27;;;1.17;;
5999;SDS011;3028;49.468;7.694;2022-08-03T13:12:45;3.67;;;1.02;;
5999;SDS011;3028;49.468;7.694;2022-08-03T13:14:53;2.28;;;0.77;;
5999;SDS011;3028;49.468;7.694;2022-08-03T13:16:56;3.85;;;1.10;;
5999;SDS011;3028;49.468;7.694;2022-08-03T13:18:57;1.02;;;0.93;;
5999;SDS011;3028;49.468;7.694;2022-08-03T13:20:59;0.85;;;0.85;;
5999;SDS011;3028;49.468;7.694;2022-08-03T13:23:02;1.00;;;0.88;;
5999;SDS011;3028;49.468;7.694;2022-08-03T13:25:04;2.05;;;1.00;;
5999;SDS011;3028;49.468;7.694;2022-08-03T13:27:06;1.30;;;0.90;;
5999;SDS011;3028;49.468;7.694;2022-08-03T13:29:28;1.52;;;1.17;;